Time;durP1;ratioP1;P1;durP2;ratioP2;P2;SDS_P1;SDS_P2;PMS_P1;PMS_P2;Temp;Humidity;BMP_temperature;BMP_pressure;BME280_temperature;BME280_humidity;BME280_pressure;Samples;Min_cycle;Max_cycle;Signal;HPM_P1;HPM_P2
2023/10/27 00:01:19;;;;;;;27.95;20.80;;;11.20;99.90;;;;;;5103904;27;20049;-80
2023/10/27 00:03:48;;;;;;;31.00;21.88;;;9.50;99.90;;;;;;5119331;27;20039;-81
2023/10/27 00:06:14;;;;;;;26.75;19.73;;;11.60;99.90;;;;;;5104184;27;20440;-81
2023/10/27 00:08:40;;;;;;;31.02;21.08;;;10.70;99.90;;;;;;5122873;27;20130;-81
2023/10/27 00:11:05;;;;;;;28.90;20.92;;;10.80;99.90;;;;;;5123151;27;20411;-81
2023/10/27 00:13:31;;;;;;;27.02;19.67;;;9.40;99.90;;;;;;5101879;28;20043;-81
2023/10/27 00:15:57;;;;;;;26.02;19.42;;;9.40;99.90;;;;;;5119280;27;20512;-81
2023/10/27 00:18:23;;;;;;;26.55;20.13;;;9.40;99.90;;;;;;5088194;27;20035;-81
2023/10/27 00:20:49;;;;;;;28.40;19.90;;;10.60;99.90;;;;;;5105637;27;20066;-81
2023/10/27 00:23:15;;;;;;;29.05;19.63;;;7.90;99.90;;;;;;5104083;27;20054;-80
2023/10/27 00:25:41;;;;;;;24.35;18.85;;;9.40;99.90;;;;;;5102596;28;20031;-84
2023/10/27 00:28:07;;;;;;;29.00;20.73;;;9.30;99.90;;;;;;5102654;27;20031;-82
2023/10/27 00:30:32;;;;;;;26.02;19.17;;;9.80;99.90;;;;;;5113134;27;20043;-81
2023/10/27 00:32:58;;;;;;;22.80;17.98;;;10.90;99.90;;;;;;5107990;27;20042;-82
2023/10/27 00:35:24;;;;;;;21.45;17.00;;;9.30;99.90;;;;;;5103580;27;20035;-81
2023/10/27 00:37:50;;;;;;;25.08;18.20;;;10.80;99.90;;;;;;5118471;28;20270;-81
2023/10/27 00:40:15;;;;;;;26.88;18.55;;;9.90;99.90;;;;;;5103115;27;20051;-81
2023/10/27 00:42:41;;;;;;;22.48;17.33;;;9.30;99.90;;;;;;5105466;27;20047;-81
2023/10/27 00:45:07;;;;;;;25.33;19.10;;;9.30;99.90;;;;;;5097362;27;20050;-81
2023/10/27 00:47:33;;;;;;;22.67;16.27;;;9.30;99.90;;;;;;5106525;27;20035;-82
2023/10/27 00:50:01;;;;;;;22.13;16.45;;;9.30;99.90;;;;;;5105283;27;20122;-82
2023/10/27 00:52:29;;;;;;;20.33;15.73;;;9.30;99.90;;;;;;5086391;27;20062;-82
2023/10/27 00:54:55;;;;;;;18.95;15.15;;;10.30;99.90;;;;;;5085109;28;20031;-83
2023/10/27 00:57:23;;;;;;;22.77;16.42;;;9.40;99.90;;;;;;5120704;27;20333;-81
2023/10/27 00:59:50;;;;;;;21.42;16.15;;;9.90;99.90;;;;;;5089514;27;20054;-82
2023/10/27 01:02:18;;;;;;;24.95;16.52;;;9.10;99.90;;;;;;5125321;27;20538;-82
2023/10/27 01:04:48;;;;;;;21.45;15.82;;;10.50;99.90;;;;;;5121894;27;20047;-82
2023/10/27 01:07:24;;;;;;;19.00;13.98;;;10.90;99.90;;;;;;5125576;27;20316;-81
2023/10/27 01:09:49;;;;;;;18.83;14.98;;;9.30;99.90;;;;;;5092383;27;20483;-81
2023/10/27 01:12:16;;;;;;;25.33;15.40;;;10.70;99.90;;;;;;5100162;27;20560;-81
2023/10/27 01:14:42;;;;;;;18.50;15.70;;;11.00;99.90;;;;;;5109699;27;20039;-82
2023/10/27 01:17:08;;;;;;;21.10;15.50;;;9.20;99.90;;;;;;5108988;27;20053;-81
2023/10/27 01:19:36;;;;;;;18.60;15.23;;;11.20;99.90;;;;;;5104941;27;20038;-81
2023/10/27 01:22:03;;;;;;;22.33;15.27;;;9.20;99.90;;;;;;5105658;27;20043;-83
2023/10/27 01:24:29;;;;;;;19.20;15.15;;;9.20;99.90;;;;;;5108684;27;20041;-83
2023/10/27 01:26:59;;;;;;;19.83;15.30;;;9.20;99.90;;;;;;5109099;27;20027;-82
2023/10/27 01:29:28;;;;;;;20.63;15.80;;;9.20;99.90;;;;;;5106948;27;20053;-83
2023/10/27 01:31:54;;;;;;;19.88;15.55;;;10.60;99.90;;;;;;5104729;27;20039;-82
2023/10/27 01:34:23;;;;;;;18.73;15.02;;;10.70;99.90;;;;;;5124909;27;20456;-81
2023/10/27 01:36:48;;;;;;;22.73;15.45;;;11.00;99.90;;;;;;5108371;27;20039;-82
2023/10/27 01:39:15;;;;;;;23.25;16.15;;;10.90;99.90;;;;;;5142193;27;20106;-81
2023/10/27 01:41:41;;;;;;;18.08;14.43;;;9.00;99.90;;;;;;5122140;27;20103;-82
2023/10/27 01:44:06;;;;;;;21.42;15.25;;;11.20;99.90;;;;;;5105029;27;20047;-81
2023/10/27 01:46:32;;;;;;;22.30;14.52;;;9.00;99.90;;;;;;5108003;27;20176;-83
2023/10/27 01:48:58;;;;;;;20.20;15.70;;;8.90;99.90;;;;;;5125813;27;20043;-81
2023/10/27 01:51:23;;;;;;;19.02;15.25;;;8.90;99.90;;;;;;5106697;27;20410;-81
2023/10/27 01:53:49;;;;;;;18.70;14.20;;;9.60;99.90;;;;;;5087020;27;20463;-81
2023/10/27 01:56:17;;;;;;;17.73;14.40;;;9.00;99.90;;;;;;5105957;27;20391;-80
2023/10/27 01:58:45;;;;;;;18.33;15.63;;;10.10;99.90;;;;;;5108849;27;20542;-83
2023/10/27 02:01:15;;;;;;;18.00;14.55;;;9.80;99.90;;;;;;5104659;27;20043;-81
2023/10/27 02:03:41;;;;;;;22.42;15.85;;;9.00;99.90;;;;;;5106414;27;20474;-80
2023/10/27 02:06:07;;;;;;;18.83;14.50;;;9.00;99.90;;;;;;5093652;27;20046;-81
2023/10/27 02:08:35;;;;;;;21.38;15.35;;;9.10;99.90;;;;;;5108282;27;20047;-82
2023/10/27 02:11:06;;;;;;;21.23;17.05;;;8.90;99.90;;;;;;5125433;27;20023;-82
2023/10/27 02:13:33;;;;;;;19.20;16.60;;;9.00;99.90;;;;;;5087567;27;20043;-80
2023/10/27 02:15:59;;;;;;;20.98;16.58;;;9.00;99.90;;;;;;5104054;27;20491;-82
2023/10/27 02:18:24;;;;;;;22.55;15.90;;;10.90;99.90;;;;;;5106715;27;20129;-82
2023/10/27 02:20:50;;;;;;;21.25;16.70;;;9.00;99.90;;;;;;5107767;27;20042;-81
2023/10/27 02:23:16;;;;;;;24.98;16.45;;;10.60;99.90;;;;;;5106544;27;20074;-80
2023/10/27 02:25:41;;;;;;;21.77;16.55;;;9.00;99.90;;;;;;5104374;27;20038;-81
2023/10/27 02:28:07;;;;;;;24.13;17.20;;;9.00;99.90;;;;;;5104219;27;20395;-81
2023/10/27 02:30:33;;;;;;;25.90;17.83;;;9.30;99.90;;;;;;5124176;27;20042;-81
2023/10/27 02:32:59;;;;;;;23.42;17.15;;;9.00;99.90;;;;;;5107687;27;20046;-82
2023/10/27 02:35:25;;;;;;;24.15;18.33;;;8.90;99.90;;;;;;5105715;27;20039;-81
2023/10/27 02:37:53;;;;;;;20.80;17.15;;;8.90;99.90;;;;;;5103573;27;20039;-83
2023/10/27 02:40:19;;;;;;;23.77;17.70;;;9.80;99.90;;;;;;5105281;27;20055;-83
2023/10/27 02:42:48;;;;;;;32.67;19.52;;;9.30;99.90;;;;;;5106714;27;20049;-84
2023/10/27 02:45:14;;;;;;;28.88;17.70;;;9.80;99.90;;;;;;5124265;27;20038;-83
2023/10/27 02:47:40;;;;;;;26.60;17.90;;;8.80;99.90;;;;;;5120907;27;20092;-82
2023/10/27 02:50:06;;;;;;;31.05;20.52;;;8.90;99.90;;;;;;5103602;27;20050;-80
2023/10/27 02:52:32;;;;;;;27.23;19.35;;;8.90;99.90;;;;;;5106496;27;20409;-80
2023/10/27 02:54:57;;;;;;;29.50;19.27;;;9.20;99.90;;;;;;5107375;27;20508;-81
2023/10/27 02:57:23;;;;;;;40.45;21.67;;;10.70;99.90;;;;;;5105123;27;20046;-81
2023/10/27 02:59:49;;;;;;;35.75;20.08;;;9.00;99.90;;;;;;5103507;27;20031;-80
2023/10/27 03:02:14;;;;;;;35.20;19.95;;;8.90;99.90;;;;;;5086955;27;20483;-82
2023/10/27 03:04:40;;;;;;;27.55;19.05;;;10.70;99.90;;;;;;5106257;27;20399;-80
2023/10/27 03:07:06;;;;;;;42.70;22.73;;;8.90;99.90;;;;;;5107298;27;20489;-83
2023/10/27 03:09:31;;;;;;;34.45;21.02;;;9.80;99.90;;;;;;5103167;27;20434;-81
2023/10/27 03:11:57;;;;;;;34.67;19.88;;;8.90;99.90;;;;;;5102631;27;20379;-81
2023/10/27 03:14:23;;;;;;;27.42;19.40;;;9.30;99.90;;;;;;5104277;27;20574;-80
2023/10/27 03:16:51;;;;;;;30.73;20.52;;;9.50;99.90;;;;;;5120139;27;20615;-81
2023/10/27 03:19:17;;;;;;;32.75;18.35;;;9.00;99.90;;;;;;5120491;27;20155;-80
2023/10/27 03:21:43;;;;;;;32.40;20.23;;;10.70;99.90;;;;;;5106247;27;20623;-81
2023/10/27 03:24:09;;;;;;;37.33;20.77;;;10.00;99.90;;;;;;5089255;27;20069;-82
2023/10/27 03:26:35;;;;;;;28.00;18.58;;;9.00;99.90;;;;;;5102875;27;20072;-82
2023/10/27 03:29:01;;;;;;;26.58;18.50;;;9.00;99.90;;;;;;5119866;27;20121;-82
2023/10/27 03:31:26;;;;;;;26.88;19.25;;;9.00;99.90;;;;;;5104826;27;20035;-80
2023/10/27 03:33:52;;;;;;;29.10;18.60;;;10.60;99.90;;;;;;5105853;27;20042;-81
2023/10/27 03:36:18;;;;;;;29.88;19.15;;;10.80;99.90;;;;;;5088901;27;20031;-81
2023/10/27 03:38:46;;;;;;;27.48;18.60;;;9.00;99.90;;;;;;5119886;27;20046;-81
2023/10/27 03:41:12;;;;;;;28.58;18.27;;;11.10;99.90;;;;;;5103146;27;20039;-82
2023/10/27 03:43:38;;;;;;;28.42;18.33;;;9.30;99.90;;;;;;5106060;27;21014;-85
2023/10/27 03:46:07;;;;;;;33.80;19.55;;;10.50;99.90;;;;;;5105740;27;20035;-81
2023/10/27 03:48:34;;;;;;;24.98;18.45;;;9.00;99.90;;;;;;5103499;27;20058;-80
2023/10/27 03:51:05;;;;;;;25.15;17.20;;;9.20;99.90;;;;;;5102807;27;20465;-82
2023/10/27 03:53:31;;;;;;;22.88;17.15;;;9.10;99.90;;;;;;5087413;27;20047;-81
2023/10/27 03:55:58;;;;;;;25.20;18.48;;;9.10;99.90;;;;;;5089642;27;20046;-81
2023/10/27 03:58:25;;;;;;;22.60;16.65;;;9.10;99.90;;;;;;5104756;27;20375;-85
2023/10/27 04:00:52;;;;;;;22.73;16.77;;;9.00;99.90;;;;;;5120005;27;20042;-80
2023/10/27 04:03:18;;;;;;;22.33;16.95;;;9.10;99.90;;;;;;5103733;27;20035;-80
2023/10/27 04:05:45;;;;;;;20.10;16.00;;;9.00;99.90;;;;;;5106459;27;20133;-81
2023/10/27 04:08:10;;;;;;;22.70;16.17;;;10.70;99.90;;;;;;5089638;27;20049;-83
2023/10/27 04:10:36;;;;;;;19.90;15.55;;;9.10;99.90;;;;;;5102157;27;20051;-80
2023/10/27 04:13:02;;;;;;;24.55;17.27;;;9.90;99.90;;;;;;5101872;27;20057;-83
2023/10/27 04:15:29;;;;;;;20.55;15.43;;;10.40;99.90;;;;;;5121634;27;20478;-82
2023/10/27 04:17:55;;;;;;;20.98;17.30;;;9.10;99.90;;;;;;5105729;27;20058;-82
2023/10/27 04:20:22;;;;;;;21.70;15.05;;;9.10;99.90;;;;;;5104586;27;20035;-83
2023/10/27 04:22:48;;;;;;;21.33;15.63;;;9.10;99.90;;;;;;5101466;27;20039;-80
2023/10/27 04:25:14;;;;;;;18.27;15.02;;;9.60;99.90;;;;;;5102521;27;20544;-81
2023/10/27 04:27:40;;;;;;;21.83;16.70;;;9.10;99.90;;;;;;5088777;27;20035;-83
2023/10/27 04:30:07;;;;;;;25.20;16.58;;;9.40;99.90;;;;;;5122113;27;20043;-81
2023/10/27 04:32:39;;;;;;;17.80;14.38;;;9.40;99.90;;;;;;5102656;27;20182;-82
2023/10/27 04:35:07;;;;;;;22.60;16.50;;;11.40;99.90;;;;;;5103620;27;20069;-83
2023/10/27 04:37:33;;;;;;;19.95;14.85;;;9.10;99.90;;;;;;5109509;27;20537;-82
2023/10/27 04:39:59;;;;;;;20.92;16.02;;;11.20;99.90;;;;;;5109797;27;20086;-81
2023/10/27 04:42:28;;;;;;;23.63;16.65;;;9.10;99.90;;;;;;5123745;27;20043;-83
2023/10/27 04:44:54;;;;;;;17.00;14.43;;;9.40;99.90;;;;;;5123303;27;20035;-82
2023/10/27 04:47:19;;;;;;;24.60;15.88;;;9.10;99.90;;;;;;5107150;27;20088;-83
2023/10/27 04:49:46;;;;;;;19.73;15.18;;;9.80;99.90;;;;;;5126324;27;20038;-81
2023/10/27 04:52:12;;;;;;;22.85;15.13;;;9.20;99.90;;;;;;5109463;27;20337;-80
2023/10/27 04:54:39;;;;;;;21.38;16.88;;;11.20;99.90;;;;;;5105400;27;20031;-81
2023/10/27 04:57:05;;;;;;;15.20;13.57;;;9.20;99.90;;;;;;5105197;27;20051;-81
2023/10/27 04:59:31;;;;;;;23.88;16.17;;;10.70;99.90;;;;;;5107978;27;20043;-80
2023/10/27 05:01:57;;;;;;;16.55;13.63;;;10.50;99.90;;;;;;5109191;27;20031;-81
2023/10/27 05:04:23;;;;;;;18.55;15.85;;;10.90;99.90;;;;;;5107827;27;20485;-80
2023/10/27 05:06:49;;;;;;;18.30;14.55;;;9.10;99.90;;;;;;5123087;27;20118;-82
2023/10/27 05:09:18;;;;;;;19.02;14.63;;;8.00;99.90;;;;;;5105861;27;20047;-82
2023/10/27 05:11:47;;;;;;;16.90;14.50;;;10.40;99.90;;;;;;5108724;27;20031;-82
2023/10/27 05:14:13;;;;;;;19.63;15.63;;;9.20;99.90;;;;;;5126282;27;20398;-83
2023/10/27 05:16:39;;;;;;;20.38;15.45;;;10.80;99.90;;;;;;5122189;27;20104;-79
2023/10/27 05:19:05;;;;;;;18.70;14.68;;;10.90;99.90;;;;;;5122022;27;20039;-84
2023/10/27 05:21:30;;;;;;;20.77;15.48;;;11.30;99.90;;;;;;5124688;27;20049;-84
2023/10/27 05:23:57;;;;;;;17.50;15.38;;;10.90;99.90;;;;;;5109196;27;20125;-84
2023/10/27 05:26:24;;;;;;;20.20;16.20;;;11.30;99.90;;;;;;5107279;27;20075;-80
2023/10/27 05:28:50;;;;;;;18.75;15.63;;;9.50;99.90;;;;;;5105650;27;20051;-80
2023/10/27 05:31:16;;;;;;;17.95;14.43;;;11.20;99.90;;;;;;5104913;27;20474;-81
2023/10/27 05:33:42;;;;;;;18.10;15.43;;;11.30;99.90;;;;;;5108616;27;20035;-80
2023/10/27 05:36:08;;;;;;;15.35;13.75;;;10.30;99.90;;;;;;5108857;27;20505;-81
2023/10/27 05:38:33;;;;;;;16.67;14.60;;;9.20;99.90;;;;;;5105495;27;20057;-80
2023/10/27 05:40:59;;;;;;;17.90;14.27;;;10.80;99.90;;;;;;5105245;27;20073;-84
2023/10/27 05:43:25;;;;;;;18.27;15.60;;;9.20;99.90;;;;;;5106348;27;20114;-81
2023/10/27 05:45:51;;;;;;;16.85;14.90;;;11.10;99.90;;;;;;5124811;27;20246;-82
2023/10/27 05:48:16;;;;;;;19.50;14.98;;;11.40;99.90;;;;;;5108119;27;20498;-81
2023/10/27 05:50:42;;;;;;;21.17;14.88;;;9.20;99.90;;;;;;5121699;27;20573;-83
2023/10/27 05:53:08;;;;;;;19.55;15.38;;;9.20;99.90;;;;;;5104301;27;20045;-82
2023/10/27 05:55:33;;;;;;;18.52;14.73;;;9.20;99.90;;;;;;5107780;27;20482;-81
2023/10/27 05:57:59;;;;;;;17.88;14.90;;;10.20;99.90;;;;;;5107930;27;20043;-80
2023/10/27 06:00:25;;;;;;;19.70;15.10;;;9.10;99.90;;;;;;5106980;27;20064;-80
2023/10/27 06:02:52;;;;;;;17.02;14.63;;;9.20;99.90;;;;;;5104651;27;20087;-83
2023/10/27 06:05:20;;;;;;;20.65;15.57;;;9.20;99.90;;;;;;5105685;27;20043;-81
2023/10/27 06:07:45;;;;;;;18.30;14.82;;;10.50;99.90;;;;;;5108383;27;20035;-82
2023/10/27 06:10:11;;;;;;;20.23;15.52;;;10.30;99.90;;;;;;5108131;27;20031;-80
2023/10/27 06:12:37;;;;;;;18.35;15.02;;;10.80;99.90;;;;;;5121577;27;20068;-81
2023/10/27 06:15:03;;;;;;;22.73;15.80;;;9.20;99.90;;;;;;5104150;27;20059;-81
2023/10/27 06:17:29;;;;;;;16.73;14.57;;;9.20;99.90;;;;;;5123863;27;20057;-83
2023/10/27 06:19:55;;;;;;;17.80;13.95;;;9.30;99.90;;;;;;5107463;27;20037;-85
2023/10/27 06:22:21;;;;;;;18.58;14.95;;;9.30;99.90;;;;;;5106371;27;20043;-84
2023/10/27 06:24:47;;;;;;;15.98;14.27;;;10.50;99.90;;;;;;5104443;27;20031;-82
2023/10/27 06:27:13;;;;;;;17.58;14.38;;;10.70;99.90;;;;;;5121504;27;20059;-82
2023/10/27 06:29:38;;;;;;;18.88;14.90;;;9.30;99.90;;;;;;5106712;27;20043;-82
2023/10/27 06:32:05;;;;;;;18.73;15.20;;;11.10;99.90;;;;;;5124170;27;20478;-82
2023/10/27 06:34:30;;;;;;;21.00;15.45;;;9.20;99.90;;;;;;5105264;27;20042;-81
2023/10/27 06:36:58;;;;;;;23.98;16.52;;;9.20;99.90;;;;;;5103484;27;20080;-82
2023/10/27 06:39:24;;;;;;;17.80;14.90;;;9.00;99.90;;;;;;5105640;27;20043;-83
2023/10/27 06:41:50;;;;;;;21.33;15.90;;;9.00;99.90;;;;;;5120149;27;20043;-82
2023/10/27 06:44:16;;;;;;;18.60;16.13;;;9.90;99.90;;;;;;5103824;27;20473;-81
2023/10/27 06:46:44;;;;;;;16.95;13.80;;;10.50;99.90;;;;;;5100298;28;20123;-82
2023/10/27 06:49:10;;;;;;;19.45;15.63;;;11.00;99.90;;;;;;5099996;28;20131;-81
2023/10/27 06:51:35;;;;;;;17.48;14.68;;;9.40;99.90;;;;;;5125853;27;20086;-80
2023/10/27 06:54:01;;;;;;;24.20;16.95;;;9.20;99.90;;;;;;5100290;28;20556;-84
2023/10/27 06:56:28;;;;;;;21.83;17.00;;;10.80;99.90;;;;;;5101560;28;20252;-82
2023/10/27 06:58:54;;;;;;;20.58;16.35;;;10.90;99.90;;;;;;5119960;27;20046;-82
2023/10/27 07:01:19;;;;;;;20.23;15.32;;;10.80;99.90;;;;;;5103219;27;20043;-84
2023/10/27 07:03:45;;;;;;;21.13;17.02;;;10.60;99.90;;;;;;5099867;28;20039;-82
2023/10/27 07:06:11;;;;;;;21.98;15.88;;;9.30;99.90;;;;;;5100676;28;20027;-81
2023/10/27 07:08:37;;;;;;;19.08;15.98;;;10.20;99.90;;;;;;5119544;27;20525;-83
2023/10/27 07:11:04;;;;;;;18.88;16.10;;;10.90;99.90;;;;;;5102963;27;20031;-84
2023/10/27 07:13:30;;;;;;;19.55;16.55;;;10.90;99.90;;;;;;5102257;27;20051;-81
2023/10/27 07:15:56;;;;;;;22.55;15.80;;;9.70;99.90;;;;;;5099759;28;20030;-81
2023/10/27 07:18:22;;;;;;;19.15;15.93;;;9.00;99.90;;;;;;5117167;27;20040;-81
2023/10/27 07:20:48;;;;;;;21.05;16.33;;;9.90;99.90;;;;;;5103758;27;20035;-83
2023/10/27 07:23:17;;;;;;;20.02;15.85;;;9.40;99.90;;;;;;5102852;27;20491;-85
2023/10/27 07:25:42;;;;;;;24.13;16.33;;;9.40;99.90;;;;;;5099289;28;20446;-82
2023/10/27 07:28:08;;;;;;;23.90;16.95;;;9.40;99.90;;;;;;5116518;27;20035;-83
2023/10/27 07:30:34;;;;;;;18.52;15.93;;;9.40;99.90;;;;;;5118234;27;20043;-81
2023/10/27 07:33:00;;;;;;;21.35;16.98;;;9.40;99.90;;;;;;5102715;27;20137;-81
2023/10/27 07:35:26;;;;;;;20.00;15.98;;;10.80;99.90;;;;;;5095196;27;20078;-82
2023/10/27 07:37:52;;;;;;;20.15;15.63;;;11.00;99.90;;;;;;5103265;27;20491;-81
2023/10/27 07:40:19;;;;;;;21.95;16.38;;;10.20;99.90;;;;;;5102756;27;20092;-81
2023/10/27 07:42:44;;;;;;;23.52;17.23;;;11.20;99.90;;;;;;5098943;28;20169;-81
2023/10/27 07:45:11;;;;;;;19.70;16.45;;;9.40;99.90;;;;;;5099023;28;20070;-81
2023/10/27 07:47:37;;;;;;;19.30;15.18;;;10.30;99.90;;;;;;5101598;27;20082;-83
2023/10/27 07:50:05;;;;;;;18.25;16.08;;;11.20;99.90;;;;;;5119837;27;20079;-83
2023/10/27 07:52:32;;;;;;;18.92;16.17;;;9.50;99.90;;;;;;5117336;27;20039;-83
2023/10/27 07:54:59;;;;;;;20.38;15.18;;;11.10;99.90;;;;;;5099333;28;20043;-83
2023/10/27 07:57:26;;;;;;;18.20;14.68;;;11.10;99.90;;;;;;5117504;27;20067;-81
2023/10/27 07:59:52;;;;;;;21.65;16.48;;;9.50;99.90;;;;;;5102526;27;20469;-82
2023/10/27 08:02:17;;;;;;;19.52;15.57;;;9.50;99.90;;;;;;5102831;27;20074;-82
2023/10/27 08:04:43;;;;;;;18.95;15.02;;;9.50;99.90;;;;;;5098963;28;20043;-82
2023/10/27 08:07:08;;;;;;;17.42;15.45;;;11.60;99.90;;;;;;5115440;27;20073;-81
2023/10/27 08:09:34;;;;;;;15.95;14.25;;;10.70;99.90;;;;;;5101115;27;20079;-81
2023/10/27 08:12:00;;;;;;;14.73;13.23;;;9.60;99.90;;;;;;5102349;27;20027;-82
2023/10/27 08:14:25;;;;;;;14.77;13.20;;;10.30;99.90;;;;;;5101650;27;20551;-80
2023/10/27 08:16:52;;;;;;;15.70;13.63;;;11.20;99.90;;;;;;5098933;28;20036;-82
2023/10/27 08:19:18;;;;;;;15.40;13.70;;;10.60;99.90;;;;;;5098806;28;20494;-81
2023/10/27 08:21:46;;;;;;;17.33;13.70;;;11.50;99.90;;;;;;5102040;27;20084;-82
2023/10/27 08:24:13;;;;;;;15.00;13.48;;;9.70;99.90;;;;;;5119231;27;20043;-81
2023/10/27 08:26:38;;;;;;;18.95;13.52;;;11.30;99.90;;;;;;5099961;28;20368;-82
2023/10/27 08:29:04;;;;;;;15.27;13.30;;;11.20;99.90;;;;;;5115477;27;20059;-81
2023/10/27 08:31:29;;;;;;;19.80;13.40;;;9.70;99.90;;;;;;5099981;28;20069;-79
2023/10/27 08:33:59;;;;;;;15.23;13.25;;;9.80;99.90;;;;;;5102457;28;20084;-81
2023/10/27 08:36:25;;;;;;;14.23;12.77;;;11.70;99.90;;;;;;5118683;28;20062;-83
2023/10/27 08:38:54;;;;;;;15.60;13.95;;;11.70;99.90;;;;;;5098445;28;20495;-81
2023/10/27 08:41:20;;;;;;;16.30;12.95;;;12.00;99.90;;;;;;5097927;28;20063;-81
2023/10/27 08:43:46;;;;;;;16.02;13.73;;;9.70;99.90;;;;;;5098466;28;20134;-80
2023/10/27 08:46:12;;;;;;;16.15;14.45;;;10.20;99.90;;;;;;5098932;28;20052;-81
2023/10/27 08:48:40;;;;;;;16.85;14.43;;;10.50;99.90;;;;;;5100217;28;20403;-83
2023/10/27 08:51:09;;;;;;;17.92;13.50;;;11.30;99.90;;;;;;5101705;28;20063;-82
2023/10/27 08:53:40;;;;;;;19.50;14.98;;;11.10;99.90;;;;;;5100171;28;20117;-81
2023/10/27 08:56:12;;;;;;;16.23;14.23;;;11.70;99.90;;;;;;5098042;28;20624;-82
2023/10/27 08:58:47;;;;;;;16.13;14.40;;;9.80;99.90;;;;;;5117888;28;20071;-81
2023/10/27 09:01:14;;;;;;;20.70;13.80;;;9.80;99.90;;;;;;5118387;28;20051;-82
2023/10/27 09:03:40;;;;;;;14.63;13.23;;;9.80;99.90;;;;;;5115745;28;20069;-81
2023/10/27 09:06:06;;;;;;;17.65;14.35;;;9.80;99.90;;;;;;5098494;28;20032;-81
2023/10/27 09:08:32;;;;;;;15.55;13.98;;;11.40;99.90;;;;;;5099728;28;20036;-81
2023/10/27 09:10:58;;;;;;;15.00;13.50;;;9.60;99.90;;;;;;5100659;28;20031;-81
2023/10/27 09:13:23;;;;;;;19.88;14.82;;;11.40;99.90;;;;;;5101835;28;20039;-82
2023/10/27 09:15:50;;;;;;;16.42;14.18;;;10.10;99.90;;;;;;5097917;28;20043;-81
2023/10/27 09:18:16;;;;;;;18.58;15.52;;;10.40;99.90;;;;;;5098098;28;20043;-82
2023/10/27 09:20:52;;;;;;;18.05;14.48;;;11.30;99.90;;;;;;5102012;27;20126;-80
2023/10/27 09:23:20;;;;;;;18.73;15.27;;;11.80;99.90;;;;;;5106289;27;20103;-83
2023/10/27 09:25:46;;;;;;;16.60;14.80;;;9.90;99.90;;;;;;5101490;28;20039;-84
2023/10/27 09:28:13;;;;;;;16.52;14.35;;;12.20;99.90;;;;;;5118900;27;20395;-84
2023/10/27 09:30:41;;;;;;;17.33;14.15;;;12.00;99.90;;;;;;5103638;27;20052;-82
2023/10/27 09:33:20;;;;;;;16.90;15.05;;;9.70;99.90;;;;;;5105410;27;20129;-80
2023/10/27 09:35:47;;;;;;;16.00;14.15;;;10.00;99.90;;;;;;5102382;28;20115;-81
2023/10/27 09:38:14;;;;;;;16.35;14.10;;;10.00;99.90;;;;;;5101404;28;20377;-83
2023/10/27 09:40:41;;;;;;;17.17;14.95;;;12.00;99.90;;;;;;5120522;27;20066;-80
2023/10/27 09:43:14;;;;;;;16.27;14.48;;;10.00;99.90;;;;;;5104888;27;20118;-82
2023/10/27 09:45:58;;;;;;;17.08;15.23;;;10.00;99.90;;;;;;5119335;27;20480;-81
2023/10/27 09:48:30;;;;;;;16.10;14.25;;;10.00;99.90;;;;;;5101984;28;20162;-82
2023/10/27 09:51:11;;;;;;;16.05;13.48;;;11.50;99.90;;;;;;5104451;27;20228;-81
2023/10/27 09:53:37;;;;;;;15.98;13.43;;;11.70;99.90;;;;;;5102642;27;20375;-80
2023/10/27 09:56:03;;;;;;;16.85;13.50;;;12.10;99.90;;;;;;5101269;28;20036;-81
2023/10/27 09:58:34;;;;;;;15.70;13.77;;;10.00;99.90;;;;;;5102638;27;20089;-82
2023/10/27 10:01:04;;;;;;;15.07;13.50;;;11.50;99.90;;;;;;5104285;27;20039;-81
2023/10/27 10:03:30;;;;;;;15.80;13.98;;;10.00;99.90;;;;;;5104184;27;20077;-80
2023/10/27 10:06:23;;;;;;;17.33;13.68;;;11.70;99.90;;;;;;5118170;27;20535;-81
2023/10/27 10:09:11;;;;;;;17.52;15.25;;;10.10;99.90;;;;;;5101457;28;20039;-81
2023/10/27 10:11:49;;;;;;;15.80;13.50;;;10.10;99.90;;;;;;5102485;27;20044;-82
2023/10/27 10:14:38;;;;;;;15.73;14.07;;;11.50;99.90;;;;;;5104109;27;20035;-81
2023/10/27 10:17:04;;;;;;;16.08;14.15;;;9.00;99.90;;;;;;5100911;28;20075;-85
2023/10/27 10:19:49;;;;;;;15.07;13.55;;;11.80;99.90;;;;;;5102103;27;20082;-81
2023/10/27 10:22:37;;;;;;;16.13;12.75;;;10.10;99.90;;;;;;5104250;27;20322;-83
2023/10/27 10:25:15;;;;;;;14.45;12.77;;;10.20;99.90;;;;;;5100670;28;20415;-86
2023/10/27 10:28:08;;;;;;;14.68;13.27;;;10.90;99.90;;;;;;5102688;27;20042;-84
2023/10/27 10:30:36;;;;;;;19.27;14.23;;;10.20;99.90;;;;;;5102204;27;20483;-81
2023/10/27 10:33:18;;;;;;;14.30;12.82;;;10.20;99.90;;;;;;5099281;28;20130;-81
2023/10/27 10:35:46;;;;;;;15.23;12.77;;;11.10;99.90;;;;;;5102738;27;20043;-81
2023/10/27 10:38:24;;;;;;;14.15;12.75;;;11.60;99.90;;;;;;5104088;27;20142;-82
2023/10/27 10:40:56;;;;;;;14.63;12.07;;;11.20;99.90;;;;;;5107927;28;20143;-81
2023/10/27 10:43:39;;;;;;;13.90;12.43;;;10.30;99.90;;;;;;5100915;28;20399;-80
2023/10/27 10:46:12;;;;;;;12.93;11.35;;;11.60;99.90;;;;;;5100410;28;20048;-82
2023/10/27 10:48:45;;;;;;;13.48;11.00;;;10.70;99.90;;;;;;5101939;27;20109;-81
2023/10/27 10:51:29;;;;;;;13.70;11.93;;;11.80;99.90;;;;;;5103573;27;20091;-84
2023/10/27 10:53:55;;;;;;;12.27;11.00;;;11.60;99.90;;;;;;5108296;28;20077;-82
2023/10/27 10:56:24;;;;;;;14.65;11.73;;;11.50;99.90;;;;;;5100107;28;20097;-82
2023/10/27 10:58:50;;;;;;;12.98;11.77;;;11.80;99.90;;;;;;5103517;27;20060;-86
2023/10/27 11:01:23;;;;;;;12.00;10.63;;;10.30;99.90;;;;;;5120147;27;20543;-84
2023/10/27 11:03:55;;;;;;;12.55;11.25;;;12.10;99.90;;;;;;5100105;28;20073;-85
2023/10/27 11:06:23;;;;;;;12.90;11.60;;;10.30;99.90;;;;;;5100210;28;20112;-85
2023/10/27 11:08:49;;;;;;;13.15;11.77;;;10.00;99.90;;;;;;5103631;27;20058;-81
2023/10/27 11:11:19;;;;;;;14.50;11.38;;;10.30;99.90;;;;;;5102633;27;20043;-82
2023/10/27 11:13:57;;;;;;;12.52;11.25;;;10.60;99.90;;;;;;5100500;27;20039;-80
2023/10/27 11:16:24;;;;;;;12.40;11.20;;;10.30;99.90;;;;;;5099459;28;20513;-80
2023/10/27 11:18:59;;;;;;;12.50;11.02;;;10.80;99.90;;;;;;5103198;27;20047;-80
2023/10/27 11:21:29;;;;;;;12.55;11.35;;;11.60;99.90;;;;;;5103188;27;20508;-80
2023/10/27 11:23:55;;;;;;;12.50;11.20;;;10.30;99.90;;;;;;5099014;28;20031;-80
2023/10/27 11:26:25;;;;;;;12.23;11.13;;;11.40;99.90;;;;;;5100127;28;20050;-80
2023/10/27 11:28:53;;;;;;;13.88;10.90;;;11.80;99.90;;;;;;5103081;27;20058;-80
2023/10/27 11:31:22;;;;;;;12.32;11.13;;;11.10;99.90;;;;;;5102836;27;20043;-81
2023/10/27 11:34:09;;;;;;;11.85;10.50;;;11.80;99.90;;;;;;5100020;27;20044;-83
2023/10/27 11:36:38;;;;;;;15.77;11.70;;;10.30;99.90;;;;;;5100411;27;20537;-80
2023/10/27 11:39:21;;;;;;;13.05;11.73;;;11.30;99.90;;;;;;5102489;27;20092;-82
2023/10/27 11:41:55;;;;;;;13.18;11.73;;;10.30;99.90;;;;;;5099156;28;20168;-81
2023/10/27 11:44:22;;;;;;;15.68;12.05;;;10.20;99.90;;;;;;5098530;28;20043;-81
2023/10/27 11:46:56;;;;;;;16.38;12.20;;;11.40;99.90;;;;;;5102373;27;20035;-79
2023/10/27 11:49:24;;;;;;;18.88;12.20;;;10.30;99.90;;;;;;5103037;27;20079;-83
2023/10/27 11:51:53;;;;;;;13.43;12.10;;;11.20;99.90;;;;;;5099231;28;20081;-84
2023/10/27 11:54:19;;;;;;;14.32;11.93;;;11.20;99.90;;;;;;5100078;28;20048;-81
2023/10/27 11:56:45;;;;;;;14.82;11.95;;;11.60;99.90;;;;;;5101400;27;20118;-82
2023/10/27 11:59:11;;;;;;;14.25;12.75;;;10.30;99.90;;;;;;5119293;27;20051;-82
2023/10/27 12:01:37;;;;;;;15.48;13.55;;;10.20;99.90;;;;;;5100636;27;20088;-82
2023/10/27 12:04:06;;;;;;;13.85;12.38;;;11.30;99.90;;;;;;5099197;28;20043;-82
2023/10/27 12:06:32;;;;;;;13.85;12.38;;;10.30;99.90;;;;;;5099229;28;20046;-82
2023/10/27 12:08:58;;;;;;;16.02;13.70;;;10.30;99.90;;;;;;5094471;27;20122;-82
2023/10/27 12:11:23;;;;;;;19.88;13.02;;;10.20;99.90;;;;;;5096773;28;20036;-83
2023/10/27 12:13:49;;;;;;;18.63;13.05;;;10.20;99.90;;;;;;5119435;27;20447;-82
2023/10/27 12:16:14;;;;;;;15.68;13.80;;;10.20;99.90;;;;;;5104930;27;20722;-83
2023/10/27 12:18:40;;;;;;;17.85;14.45;;;10.20;99.90;;;;;;5116722;27;20038;-82
2023/10/27 12:21:06;;;;;;;17.17;13.68;;;10.20;99.90;;;;;;5119048;27;20091;-83
2023/10/27 12:23:32;;;;;;;18.63;14.43;;;11.90;99.90;;;;;;5119757;27;20047;-82
2023/10/27 12:25:59;;;;;;;15.95;13.10;;;10.20;99.90;;;;;;5119812;27;20371;-81
2023/10/27 12:28:27;;;;;;;17.67;15.02;;;10.20;99.90;;;;;;5101913;28;20044;-82
2023/10/27 12:30:54;;;;;;;16.00;13.55;;;10.20;99.90;;;;;;5114563;28;20112;-82
2023/10/27 12:33:20;;;;;;;20.15;15.43;;;10.30;99.90;;;;;;5115187;28;20044;-83